createdAt,value
2019-06-26T00:02:02.401Z,55.97
2019-06-26T00:04:31.553Z,55.99
2019-06-26T00:07:00.959Z,55.99
2019-06-26T00:09:30.632Z,56.03
2019-06-26T00:11:59.758Z,56.01
2019-06-26T00:14:29.249Z,56.00
2019-06-26T00:16:59.155Z,56.03
2019-06-26T00:19:29.024Z,56.01
2019-06-26T00:21:58.457Z,56.04
2019-06-26T00:24:28.288Z,56.06
2019-06-26T00:26:58.081Z,56.00
2019-06-26T00:29:27.504Z,56.03
2019-06-26T00:31:57.360Z,56.03
2019-06-26T00:34:27.109Z,56.03
2019-06-26T00:36:56.493Z,55.99
2019-06-26T00:39:25.943Z,56.01
2019-06-26T00:41:55.720Z,56.02
2019-06-26T00:44:24.887Z,56.02
2019-06-26T00:46:53.994Z,56.01
2019-06-26T00:49:23.841Z,55.97
2019-06-26T00:51:53.644Z,55.98
2019-06-26T00:54:22.780Z,55.98
2019-06-26T00:56:52.234Z,55.96
2019-06-26T00:59:21.840Z,55.96
2019-06-26T01:01:50.963Z,55.95
2019-06-26T01:04:24.742Z,55.96
2019-06-26T01:06:54.146Z,55.95
2019-06-26T01:09:23.666Z,55.97
2019-06-26T01:11:53.132Z,55.91
2019-06-26T01:14:22.985Z,55.88
2019-06-26T01:16:52.839Z,55.87
2019-06-26T01:19:22.303Z,55.87
2019-06-26T01:21:51.425Z,55.86
2019-06-26T01:24:20.574Z,55.86
2019-06-26T01:26:49.994Z,55.84
2019-06-26T01:29:19.462Z,55.82
2019-06-26T01:31:49.310Z,55.76
2019-06-26T01:34:18.801Z,55.75
2019-06-26T01:36:48.301Z,55.75
2019-06-26T01:39:17.446Z,55.78
2019-06-26T01:41:46.894Z,55.79
2019-06-26T01:44:16.326Z,55.84
2019-06-26T01:46:45.449Z,55.79
2019-06-26T01:49:14.598Z,55.77
2019-06-26T01:51:44.708Z,55.79
2019-06-26T01:54:14.573Z,55.74
2019-06-26T01:56:44.808Z,55.72
2019-06-26T01:59:14.621Z,55.73
2019-06-26T02:01:44.023Z,55.69
2019-06-26T02:04:15.564Z,55.71
2019-06-26T02:06:44.405Z,55.69
2019-06-26T02:09:13.905Z,55.71
2019-06-26T02:11:43.744Z,55.67
2019-06-26T02:14:29.592Z,55.65
2019-06-26T02:16:44.775Z,55.65
2019-06-26T02:19:15.784Z,55.67
2019-06-26T02:21:45.303Z,55.65
2019-06-26T02:24:14.714Z,55.64
2019-06-26T02:26:43.916Z,55.65
2019-06-26T02:29:13.341Z,55.64
2019-06-26T02:31:42.462Z,55.67
2019-06-26T02:34:11.924Z,55.68
2019-06-26T02:36:41.072Z,55.65
2019-06-26T02:39:10.556Z,55.67
2019-06-26T02:41:40.568Z,55.64
2019-06-26T02:44:10.028Z,55.63
2019-06-26T02:46:39.878Z,55.63
2019-06-26T02:49:08.998Z,55.64
2019-06-26T02:51:38.835Z,55.58
2019-06-26T02:54:08.227Z,55.65
2019-06-26T02:56:37.367Z,55.61
2019-06-26T02:59:06.551Z,55.64
2019-06-26T03:01:36.061Z,55.65
2019-06-26T03:04:05.199Z,55.61
2019-06-26T03:06:34.681Z,55.56
2019-06-26T03:09:05.573Z,55.55
2019-06-26T03:11:34.993Z,55.55
2019-06-26T03:14:04.338Z,55.56
2019-06-26T03:16:34.419Z,55.53
2019-06-26T03:19:04.208Z,55.54
2019-06-26T03:21:33.894Z,55.54
2019-06-26T03:24:03.361Z,55.47
2019-06-26T03:26:32.879Z,55.50
2019-06-26T03:29:02.327Z,55.51
2019-06-26T03:31:31.754Z,55.48
2019-06-26T03:34:01.566Z,55.42
2019-06-26T03:36:31.372Z,55.41
2019-06-26T03:39:00.855Z,55.37
2019-06-26T03:41:30.625Z,55.37
2019-06-26T03:44:00.478Z,55.32
2019-06-26T03:46:30.221Z,55.30
2019-06-26T03:48:59.693Z,55.19
2019-06-26T03:51:29.759Z,55.18
2019-06-26T03:53:59.213Z,55.14
2019-06-26T03:56:28.624Z,55.10
2019-06-26T03:58:58.047Z,55.10
2019-06-26T04:01:27.853Z,55.05
2019-06-26T04:03:57.631Z,55.01
2019-06-26T04:06:27.268Z,54.96
2019-06-26T04:08:56.695Z,54.93
2019-06-26T04:11:26.147Z,54.85
2019-06-26T04:13:55.569Z,54.86
2019-06-26T04:16:24.692Z,54.83
2019-06-26T04:18:54.198Z,54.81
2019-06-26T04:21:23.954Z,54.83
2019-06-26T04:23:53.978Z,54.78
2019-06-26T04:26:23.409Z,54.78
2019-06-26T04:28:52.910Z,54.71
2019-06-26T04:31:22.312Z,54.35
2019-06-26T04:33:52.146Z,54.56
2019-06-26T04:36:21.751Z,54.60
2019-06-26T04:38:51.228Z,54.67
2019-06-26T04:41:20.635Z,54.52
2019-06-26T04:43:50.136Z,54.70
2019-06-26T04:46:19.981Z,54.66
2019-06-26T04:48:50.117Z,54.69
2019-06-26T04:51:19.266Z,54.45
2019-06-26T04:53:48.413Z,54.76
2019-06-26T04:56:17.536Z,54.90
2019-06-26T04:58:46.681Z,54.97
2019-06-26T05:01:16.313Z,55.14
2019-06-26T05:03:45.576Z,55.00
2019-06-26T05:06:14.886Z,54.75
2019-06-26T05:08:44.442Z,54.84
2019-06-26T05:11:14.176Z,54.93
2019-06-26T05:13:43.684Z,54.94
2019-06-26T05:16:15.662Z,54.94
2019-06-26T05:18:43.926Z,54.87
2019-06-26T05:21:13.760Z,54.99
2019-06-26T05:23:42.916Z,54.96
2019-06-26T05:26:12.267Z,54.89
2019-06-26T05:28:42.745Z,54.84
2019-06-26T05:31:12.571Z,54.72
2019-06-26T05:33:42.405Z,54.65
2019-06-26T05:36:11.526Z,54.76
2019-06-26T05:38:40.717Z,54.78
2019-06-26T05:41:10.509Z,54.86
2019-06-26T05:43:39.672Z,54.87
2019-06-26T05:46:08.831Z,54.86
2019-06-26T05:48:38.284Z,54.81
2019-06-26T05:51:07.764Z,54.83
2019-06-26T05:53:37.238Z,54.81
2019-06-26T05:56:06.673Z,54.83
2019-06-26T05:58:36.477Z,54.85
2019-06-26T06:01:05.661Z,54.87
2019-06-26T06:03:34.777Z,54.87
2019-06-26T06:06:04.405Z,54.89
2019-06-26T06:08:33.538Z,54.91
2019-06-26T06:11:03.307Z,54.91
2019-06-26T06:13:33.128Z,54.93
2019-06-26T06:16:06.234Z,54.96
2019-06-26T06:18:34.432Z,54.97
2019-06-26T06:21:04.499Z,54.97
2019-06-26T06:23:33.714Z,54.98
2019-06-26T06:26:03.589Z,54.93
2019-06-26T06:28:33.338Z,54.96
2019-06-26T06:31:03.168Z,54.96
2019-06-26T06:33:32.973Z,54.97
2019-06-26T06:36:02.415Z,54.97
2019-06-26T06:38:32.232Z,54.97
2019-06-26T06:41:01.912Z,54.95
2019-06-26T06:43:31.429Z,54.99
2019-06-26T06:46:01.181Z,54.99
2019-06-26T06:48:31.222Z,54.44
2019-06-26T06:51:00.710Z,54.82
2019-06-26T06:53:29.826Z,54.95
2019-06-26T06:55:59.342Z,55.04
2019-06-26T06:58:30.259Z,55.05
2019-06-26T07:00:59.632Z,55.07
2019-06-26T07:03:29.098Z,55.07
2019-06-26T07:05:59.592Z,55.03
2019-06-26T07:08:29.089Z,55.00
2019-06-26T07:10:58.218Z,54.99
2019-06-26T07:13:28.013Z,54.88
2019-06-26T07:15:57.475Z,54.87
2019-06-26T07:18:27.220Z,54.89
2019-06-26T07:20:57.320Z,54.84
2019-06-26T07:23:27.159Z,54.76
2019-06-26T07:25:56.271Z,54.72
2019-06-26T07:28:25.869Z,54.72
2019-06-26T07:30:55.677Z,54.69
2019-06-26T07:33:25.460Z,54.64
2019-06-26T07:35:55.408Z,54.58
2019-06-26T07:38:24.498Z,54.49
2019-06-26T07:40:53.998Z,54.40
2019-06-26T07:43:23.887Z,54.42
2019-06-26T07:45:53.025Z,54.38
2019-06-26T07:48:22.936Z,54.40
2019-06-26T07:50:52.568Z,54.37
2019-06-26T07:53:22.417Z,54.32
2019-06-26T07:55:52.294Z,54.21
2019-06-26T07:58:21.813Z,54.11
2019-06-26T08:00:51.218Z,54.06
2019-06-26T08:03:20.637Z,54.04
2019-06-26T08:05:50.046Z,54.05
2019-06-26T08:08:19.440Z,54.11
2019-06-26T08:10:49.260Z,54.09
2019-06-26T08:13:18.374Z,54.07
2019-06-26T08:15:47.856Z,54.01
2019-06-26T08:18:17.359Z,54.00
2019-06-26T08:20:55.482Z,53.85
2019-06-26T08:23:17.680Z,53.84
2019-06-26T08:25:47.520Z,53.87
2019-06-26T08:28:17.624Z,53.94
2019-06-26T08:30:47.681Z,53.95
2019-06-26T08:33:17.159Z,53.97
2019-06-26T08:35:46.559Z,53.94
2019-06-26T08:38:16.361Z,53.87
2019-06-26T08:40:45.799Z,53.79
2019-06-26T08:43:14.913Z,53.84
2019-06-26T08:45:44.370Z,53.88
2019-06-26T08:48:28.196Z,53.91
2019-06-26T08:50:45.058Z,53.96
2019-06-26T08:53:15.068Z,53.99
2019-06-26T08:55:45.124Z,53.98
2019-06-26T08:58:14.830Z,53.94
2019-06-26T09:00:43.978Z,53.82
2019-06-26T09:03:13.462Z,53.81
2019-06-26T09:05:48.070Z,53.84
2019-06-26T09:08:14.124Z,53.92
2019-06-26T09:10:45.294Z,53.89
2019-06-26T09:13:14.842Z,53.96
2019-06-26T09:15:43.957Z,53.94
2019-06-26T09:18:13.774Z,54.01
2019-06-26T09:20:43.824Z,53.99
2019-06-26T09:23:13.217Z,53.98
2019-06-26T09:25:43.243Z,53.94
2019-06-26T09:28:12.384Z,53.94
2019-06-26T09:30:42.269Z,54.00
2019-06-26T09:33:11.684Z,53.94
2019-06-26T09:35:41.444Z,53.96
2019-06-26T09:38:11.194Z,53.84
2019-06-26T09:40:40.960Z,53.97
2019-06-26T09:43:12.454Z,54.00
2019-06-26T09:45:42.525Z,54.05
2019-06-26T09:48:11.649Z,54.05
2019-06-26T09:50:41.092Z,54.05
2019-06-26T09:53:12.826Z,54.06
2019-06-26T09:55:42.282Z,54.09
2019-06-26T09:58:13.336Z,54.10
2019-06-26T10:00:43.124Z,54.09
2019-06-26T10:03:12.524Z,54.11
2019-06-26T10:05:42.655Z,54.08
2019-06-26T10:08:12.155Z,54.11
2019-06-26T10:10:41.854Z,54.03
2019-06-26T10:13:11.261Z,54.03
2019-06-26T10:15:40.760Z,54.01
2019-06-26T10:18:10.143Z,53.99
2019-06-26T10:20:39.265Z,53.81
2019-06-26T10:23:08.393Z,53.98
2019-06-26T10:25:37.675Z,54.04
2019-06-26T10:28:07.243Z,54.09
2019-06-26T10:30:36.662Z,54.03
2019-06-26T10:33:06.156Z,53.91
2019-06-26T10:35:36.127Z,54.05
2019-06-26T10:38:05.956Z,54.09
2019-06-26T10:40:36.073Z,54.16
2019-06-26T10:43:05.989Z,54.12
2019-06-26T10:45:36.519Z,54.33
2019-06-26T10:48:06.112Z,54.38
2019-06-26T10:50:47.477Z,54.36
2019-06-26T10:53:06.387Z,54.36
2019-06-26T10:55:35.521Z,54.38
2019-06-26T10:58:04.980Z,54.37
2019-06-26T11:00:34.945Z,54.38
2019-06-26T11:03:04.195Z,54.38
2019-06-26T11:05:33.312Z,54.34
2019-06-26T11:08:02.447Z,54.18
2019-06-26T11:10:32.216Z,54.12
2019-06-26T11:13:02.528Z,54.14
2019-06-26T11:15:32.726Z,54.16
2019-06-26T11:18:01.839Z,54.20
2019-06-26T11:20:31.609Z,54.26
2019-06-26T11:23:01.487Z,54.13
2019-06-26T11:25:31.352Z,54.13
2019-06-26T11:28:01.036Z,54.13
2019-06-26T11:30:31.076Z,54.20
2019-06-26T11:33:00.520Z,54.22
2019-06-26T11:35:29.928Z,54.25
2019-06-26T11:37:59.348Z,54.25
2019-06-26T11:40:29.098Z,54.25
2019-06-26T11:42:59.019Z,54.25
2019-06-26T11:45:28.782Z,54.26
2019-06-26T11:47:58.669Z,54.25
2019-06-26T11:50:28.289Z,54.21
2019-06-26T11:52:57.707Z,54.20
2019-06-26T11:55:27.189Z,54.22
2019-06-26T11:57:56.620Z,54.23
2019-06-26T12:00:26.514Z,54.22
2019-06-26T12:02:56.008Z,54.26
2019-06-26T12:05:25.409Z,54.29
2019-06-26T12:07:54.937Z,54.29
2019-06-26T12:10:24.482Z,54.30
2019-06-26T12:12:53.684Z,54.32
2019-06-26T12:15:23.403Z,54.35
2019-06-26T12:17:53.209Z,54.39
2019-06-26T12:20:22.721Z,54.38
2019-06-26T12:22:52.152Z,54.39
2019-06-26T12:25:21.756Z,54.35
2019-06-26T12:27:51.151Z,54.36
2019-06-26T12:30:21.503Z,54.36
2019-06-26T12:33:02.254Z,54.37
2019-06-26T12:35:22.153Z,54.40
2019-06-26T12:37:52.011Z,54.41
2019-06-26T12:40:21.534Z,54.41
2019-06-26T12:42:54.511Z,54.41
2019-06-26T12:45:21.908Z,54.42
2019-06-26T12:47:51.028Z,54.42
2019-06-26T12:50:34.538Z,54.44
2019-06-26T12:52:54.165Z,54.48
2019-06-26T12:55:23.895Z,54.46
2019-06-26T12:57:53.754Z,54.52
2019-06-26T13:00:24.099Z,54.52
2019-06-26T13:02:53.840Z,54.50
2019-06-26T13:05:23.027Z,54.53
2019-06-26T13:07:52.440Z,54.50
2019-06-26T13:10:22.077Z,54.55
2019-06-26T13:12:51.488Z,54.46
2019-06-26T13:15:20.768Z,54.46
2019-06-26T13:17:50.227Z,54.47
2019-06-26T13:20:20.336Z,54.44
2019-06-26T13:22:49.751Z,54.55
2019-06-26T13:25:19.546Z,54.56
2019-06-26T13:27:49.298Z,54.57
2019-06-26T13:30:24.295Z,54.57
2019-06-26T13:32:53.710Z,54.53
2019-06-26T13:35:24.321Z,54.54
2019-06-26T13:37:53.509Z,54.62
2019-06-26T13:40:23.187Z,54.57
2019-06-26T13:42:52.986Z,54.48
2019-06-26T13:45:22.539Z,54.57
2019-06-26T13:47:51.886Z,54.53
2019-06-26T13:50:21.696Z,54.47
2019-06-26T13:52:51.128Z,54.53
2019-06-26T13:55:20.610Z,54.53
2019-06-26T13:57:50.426Z,54.51
2019-06-26T14:00:20.344Z,54.51
2019-06-26T14:02:49.760Z,54.53
2019-06-26T14:05:19.578Z,54.56
2019-06-26T14:07:49.356Z,54.58
2019-06-26T14:10:20.309Z,54.57
2019-06-26T14:12:49.770Z,54.58
2019-06-26T14:15:19.406Z,54.63
2019-06-26T14:17:48.540Z,54.65
2019-06-26T14:20:18.689Z,54.68
2019-06-26T14:22:48.132Z,54.68
2019-06-26T14:25:17.458Z,54.69
2019-06-26T14:27:46.579Z,54.70
2019-06-26T14:30:17.329Z,54.71
2019-06-26T14:32:46.449Z,54.72
2019-06-26T14:35:16.687Z,54.79
2019-06-26T14:37:46.171Z,54.87
2019-06-26T14:40:15.495Z,54.91
2019-06-26T14:42:44.976Z,54.93
2019-06-26T14:45:15.444Z,55.03
2019-06-26T14:47:45.219Z,55.10
2019-06-26T14:50:15.457Z,55.06
2019-06-26T14:52:46.045Z,55.09
2019-06-26T14:55:16.209Z,55.07
2019-06-26T14:57:45.371Z,55.13
2019-06-26T15:00:15.294Z,55.11
2019-06-26T15:02:44.702Z,55.11
2019-06-26T15:05:15.216Z,55.10
2019-06-26T15:07:44.762Z,55.09
2019-06-26T15:10:15.793Z,55.08
2019-06-26T15:12:44.915Z,55.10
2019-06-26T15:15:14.500Z,55.09
2019-06-26T15:17:43.625Z,55.12
2019-06-26T15:20:13.494Z,55.12
2019-06-26T15:22:42.957Z,55.17
2019-06-26T15:25:12.730Z,55.22
2019-06-26T15:27:41.850Z,55.23
2019-06-26T15:30:12.905Z,55.32
2019-06-26T15:32:42.290Z,55.37
2019-06-26T15:35:11.850Z,55.45
2019-06-26T15:37:44.677Z,55.40
2019-06-26T15:40:13.928Z,55.20
2019-06-26T15:42:44.447Z,55.24
2019-06-26T15:45:14.603Z,55.31
2019-06-26T15:47:44.349Z,55.38
2019-06-26T15:50:14.101Z,55.38
2019-06-26T15:52:43.987Z,55.35
2019-06-26T15:55:13.925Z,55.35
2019-06-26T15:57:43.406Z,55.49
2019-06-26T16:00:12.931Z,55.39
2019-06-26T16:02:42.437Z,55.30
2019-06-26T16:05:12.170Z,55.74
2019-06-26T16:07:41.855Z,55.71
2019-06-26T16:10:11.458Z,55.98
2019-06-26T16:12:40.981Z,56.08
2019-06-26T16:15:10.376Z,56.11
2019-06-26T16:17:46.022Z,56.11
2019-06-26T16:20:15.190Z,56.13
2019-06-26T16:22:44.308Z,56.16
2019-06-26T16:25:14.080Z,56.16
2019-06-26T16:27:43.469Z,56.18
2019-06-26T16:30:13.225Z,56.18
2019-06-26T16:32:42.641Z,56.16
2019-06-26T16:35:12.821Z,56.11
2019-06-26T16:37:42.762Z,56.00
2019-06-26T16:40:12.010Z,56.04
2019-06-26T16:42:41.137Z,56.00
2019-06-26T16:45:10.828Z,56.01
2019-06-26T16:47:39.952Z,55.98
2019-06-26T16:50:09.598Z,55.98
2019-06-26T16:52:49.112Z,55.96
2019-06-26T16:55:10.650Z,55.93
2019-06-26T16:57:39.954Z,55.94
2019-06-26T17:00:10.489Z,55.78
2019-06-26T17:02:39.957Z,55.75
2019-06-26T17:05:10.057Z,55.75
2019-06-26T17:07:39.496Z,55.79
2019-06-26T17:10:09.620Z,55.82
2019-06-26T17:12:39.129Z,55.86
2019-06-26T17:15:09.325Z,55.86
2019-06-26T17:17:38.917Z,55.87
2019-06-26T17:20:09.034Z,55.86
2019-06-26T17:22:38.785Z,55.85
2019-06-26T17:25:08.340Z,55.88
2019-06-26T17:27:38.084Z,55.85
2019-06-26T17:30:08.012Z,55.80
2019-06-26T17:32:37.929Z,55.81
2019-06-26T17:35:07.716Z,55.85
2019-06-26T17:37:37.517Z,55.74
2019-06-26T17:40:08.393Z,55.81
2019-06-26T17:42:38.204Z,55.81
2019-06-26T17:45:07.766Z,55.83
2019-06-26T17:47:36.946Z,55.83
2019-06-26T17:50:07.661Z,55.86
2019-06-26T17:52:38.492Z,55.89
2019-06-26T17:55:08.469Z,55.89
2019-06-26T17:57:38.041Z,55.78
2019-06-26T18:00:07.949Z,55.81
2019-06-26T18:02:37.658Z,55.81
2019-06-26T18:05:07.506Z,55.67
2019-06-26T18:07:36.662Z,55.80
2019-06-26T18:10:06.258Z,55.74
2019-06-26T18:12:35.713Z,55.73
2019-06-26T18:15:05.195Z,55.67
2019-06-26T18:17:34.758Z,55.72
2019-06-26T18:20:04.153Z,55.69
2019-06-26T18:22:33.958Z,55.73
2019-06-26T18:25:03.509Z,55.68
2019-06-26T18:27:32.967Z,55.59
2019-06-26T18:30:02.698Z,55.60
2019-06-26T18:32:32.177Z,55.57
2019-06-26T18:35:01.915Z,55.48
2019-06-26T18:37:31.983Z,55.52
2019-06-26T18:40:01.186Z,55.50
2019-06-26T18:42:30.317Z,55.49
2019-06-26T18:45:00.137Z,55.48
2019-06-26T18:47:29.926Z,55.49
2019-06-26T18:49:59.075Z,55.51
2019-06-26T18:52:28.935Z,55.48
2019-06-26T18:54:58.402Z,55.55
2019-06-26T18:57:28.148Z,55.68
2019-06-26T18:59:58.037Z,55.78
2019-06-26T19:02:27.187Z,55.91
2019-06-26T19:04:56.977Z,55.85
2019-06-26T19:07:26.502Z,55.92
2019-06-26T19:09:55.745Z,55.92
2019-06-26T19:12:24.910Z,55.93
2019-06-26T19:14:54.033Z,55.92
2019-06-26T19:17:23.875Z,55.90
2019-06-26T19:19:53.344Z,55.89
2019-06-26T19:22:22.495Z,55.92
2019-06-26T19:24:51.627Z,55.97
2019-06-26T19:27:20.775Z,55.90
2019-06-26T19:29:49.921Z,55.76
2019-06-26T19:32:19.073Z,55.59
2019-06-26T19:34:48.862Z,55.41
2019-06-26T19:37:18.655Z,55.38
2019-06-26T19:39:48.077Z,55.34
2019-06-26T19:42:17.218Z,55.34
2019-06-26T19:44:46.691Z,55.30
2019-06-26T19:47:16.497Z,55.30
2019-06-26T19:49:46.670Z,55.25
2019-06-26T19:52:16.119Z,55.28
2019-06-26T19:54:45.359Z,55.25
2019-06-26T19:57:14.906Z,55.24
2019-06-26T19:59:44.325Z,55.46
2019-06-26T20:02:13.813Z,55.55
2019-06-26T20:04:43.511Z,55.59
2019-06-26T20:07:12.919Z,55.66
2019-06-26T20:09:43.108Z,55.68
2019-06-26T20:12:12.524Z,55.71
2019-06-26T20:14:41.697Z,55.69
2019-06-26T20:17:11.452Z,55.64
2019-06-26T20:19:44.255Z,55.64
2019-06-26T20:22:14.045Z,55.62
2019-06-26T20:24:44.907Z,55.58
2019-06-26T20:27:14.288Z,55.59
2019-06-26T20:29:43.704Z,55.57
2019-06-26T20:32:13.803Z,55.55
2019-06-26T20:34:43.430Z,55.51
2019-06-26T20:37:12.548Z,55.49
2019-06-26T20:39:42.323Z,55.46
2019-06-26T20:42:12.369Z,55.42
2019-06-26T20:44:41.509Z,55.38
2019-06-26T20:47:11.246Z,55.38
2019-06-26T20:49:52.551Z,55.38
2019-06-26T20:52:12.325Z,55.36
2019-06-26T20:54:41.461Z,55.33
2019-06-26T20:57:10.903Z,55.26
2019-06-26T20:59:40.427Z,55.29
2019-06-26T21:02:09.559Z,55.23
2019-06-26T21:04:38.978Z,55.15
2019-06-26T21:07:08.110Z,55.06
2019-06-26T21:09:37.330Z,55.04
2019-06-26T21:12:06.820Z,55.02
2019-06-26T21:14:36.599Z,55.05
2019-06-26T21:17:06.028Z,55.01
2019-06-26T21:19:35.515Z,54.94
2019-06-26T21:22:04.691Z,54.99
2019-06-26T21:24:34.530Z,54.91
2019-06-26T21:27:04.122Z,54.89
2019-06-26T21:29:34.046Z,54.85
2019-06-26T21:32:03.204Z,54.88
2019-06-26T21:34:32.644Z,54.85
2019-06-26T21:37:01.804Z,54.81
2019-06-26T21:39:31.588Z,54.86
2019-06-26T21:42:01.086Z,54.82
2019-06-26T21:44:30.871Z,54.75
2019-06-26T21:46:59.985Z,54.77
2019-06-26T21:49:31.908Z,54.80
2019-06-26T21:52:01.720Z,54.75
2019-06-26T21:54:31.207Z,54.75
2019-06-26T21:57:00.866Z,54.72
2019-06-26T21:59:30.289Z,54.64
2019-06-26T22:01:59.396Z,54.57
2019-06-26T22:04:28.922Z,54.58
2019-06-26T22:06:58.599Z,54.60
2019-06-26T22:09:28.132Z,54.56
2019-06-26T22:12:00.790Z,54.53
2019-06-26T22:14:29.398Z,54.46
2019-06-26T22:16:58.816Z,54.39
2019-06-26T22:19:28.630Z,54.43
2019-06-26T22:21:57.718Z,54.46
2019-06-26T22:24:27.183Z,54.47
2019-06-26T22:26:56.930Z,54.53
2019-06-26T22:29:26.334Z,54.46
2019-06-26T22:31:55.811Z,54.44
2019-06-26T22:34:25.612Z,54.46
2019-06-26T22:36:55.032Z,54.55
2019-06-26T22:39:24.438Z,54.54
2019-06-26T22:41:53.537Z,54.64
2019-06-26T22:44:22.636Z,54.58
2019-06-26T22:46:51.789Z,54.59
2019-06-26T22:49:21.227Z,54.54
2019-06-26T22:51:50.313Z,54.57
2019-06-26T22:54:20.013Z,54.55
2019-06-26T22:56:49.404Z,54.55
2019-06-26T22:59:19.169Z,54.57
2019-06-26T23:01:48.646Z,54.61
2019-06-26T23:04:18.352Z,54.62
2019-06-26T23:06:47.829Z,54.64
2019-06-26T23:09:17.260Z,54.60
2019-06-26T23:11:46.683Z,54.59
2019-06-26T23:14:16.551Z,54.65
2019-06-26T23:16:46.293Z,54.67
2019-06-26T23:19:15.371Z,54.66
2019-06-26T23:21:44.787Z,54.63
2019-06-26T23:24:13.891Z,54.62
2019-06-26T23:26:43.715Z,54.63
2019-06-26T23:29:13.756Z,54.59
2019-06-26T23:31:43.213Z,54.56
2019-06-26T23:34:12.864Z,54.62
2019-06-26T23:36:42.751Z,54.64
2019-06-26T23:39:12.564Z,54.64
2019-06-26T23:41:41.644Z,54.62
2019-06-26T23:44:11.365Z,54.57
2019-06-26T23:46:40.446Z,54.57
2019-06-26T23:49:09.863Z,54.55
2019-06-26T23:51:39.343Z,54.58
2019-06-26T23:54:09.180Z,54.59
2019-06-26T23:56:40.642Z,54.60
2019-06-26T23:59:10.364Z,54.57
